Time;durP1;ratioP1;P1;durP2;ratioP2;P2;SDS_P1;SDS_P2;PMS_P1;PMS_P2;Temp;Humidity;BMP_temperature;BMP_pressure;BME280_temperature;BME280_humidity;BME280_pressure;Samples;Min_cycle;Max_cycle;Signal;HPM_P1;HPM_P2
2020/12/23 00:00:11;;;;;;;;;;;;;;;9.30;95.79;93298.22;1065820;55;20575;-86
2020/12/23 00:01:12;;;;;;;;;;;;;;;9.34;95.60;93299.69;1068111;55;20298;-86
2020/12/23 00:02:13;;;;;;;;;;;;;;;9.44;94.00;93302.59;1067991;55;20234;-85
2020/12/23 00:03:13;;;;;;;;;;;;;;;9.39;95.40;93303.06;1065795;55;20185;-85
2020/12/23 00:04:14;;;;;;;;;;;;;;;9.43;94.60;93303.75;1065903;55;20181;-85
2020/12/23 00:05:15;;;;;;;;;;;;;;;9.41;95.01;93303.41;1065853;55;20201;-86
2020/12/23 00:06:15;;;;;;;;;;;;;;;9.39;95.57;93301.13;1068134;55;20164;-87
2020/12/23 00:07:18;;;;;;;;;;;;;;;9.38;95.96;93299.63;1065798;55;21108;-85
2020/12/23 00:08:19;;;;;;;;;;;;;;;9.36;95.33;93296.63;1066070;55;20161;-85
2020/12/23 00:09:20;;;;;;;;;;;;;;;9.47;94.04;93296.47;1067992;55;20199;-85
2020/12/23 00:10:21;;;;;;;;;;;;;;;9.49;94.24;93299.50;1070184;55;20168;-88
2020/12/23 00:11:21;;;;;;;;;;;;;;;9.47;94.51;93301.78;1072003;55;20149;-86
2020/12/23 00:12:22;;;;;;;;;;;;;;;9.48;94.77;93301.41;1070233;55;20161;-86
2020/12/23 00:13:23;;;;;;;;;;;;;;;9.44;94.97;93295.38;1067848;55;20192;-86
2020/12/23 00:14:24;;;;;;;;;;;;;;;9.40;95.61;93297.34;1065742;55;20230;-86
2020/12/23 00:15:24;;;;;;;;;;;;;;;9.36;95.33;93285.94;1067492;55;20184;-86
2020/12/23 00:16:25;;;;;;;;;;;;;;;9.40;94.85;93284.00;1070188;55;21043;-86
2020/12/23 00:17:25;;;;;;;;;;;;;;;9.38;95.44;93280.97;1067990;55;20172;-85
2020/12/23 00:18:27;;;;;;;;;;;;;;;9.39;95.27;93284.38;1068196;55;20183;-85
2020/12/23 00:19:30;;;;;;;;;;;;;;;9.42;94.77;93295.00;1065810;55;20193;-85
2020/12/23 00:20:30;;;;;;;;;;;;;;;9.40;94.71;93278.66;1065971;55;20150;-84
2020/12/23 00:21:32;;;;;;;;;;;;;;;9.42;94.73;93288.91;1067927;55;20157;-87
2020/12/23 00:22:33;;;;;;;;;;;;;;;9.44;94.66;93279.37;1067941;55;20192;-85
2020/12/23 00:23:34;;;;;;;;;;;;;;;9.49;94.06;93278.91;1068008;55;20779;-86
2020/12/23 00:24:35;;;;;;;;;;;;;;;9.43;95.00;93275.16;1065915;55;20228;-87
2020/12/23 00:25:35;;;;;;;;;;;;;;;9.41;95.59;93285.50;1067918;55;20150;-85
2020/12/23 00:26:36;;;;;;;;;;;;;;;9.52;93.44;93272.72;1065776;55;20169;-85
2020/12/23 00:27:37;;;;;;;;;;;;;;;9.46;94.01;93279.69;1066001;55;20602;-85
2020/12/23 00:28:38;;;;;;;;;;;;;;;9.44;95.64;93279.37;1065933;55;20664;-87
2020/12/23 00:29:38;;;;;;;;;;;;;;;9.42;95.01;93284.31;1067930;55;21193;-84
2020/12/23 00:30:39;;;;;;;;;;;;;;;9.38;95.17;93275.62;1067786;55;20173;-87
2020/12/23 00:31:40;;;;;;;;;;;;;;;9.44;94.06;93276.69;1067827;55;20640;-86
2020/12/23 00:32:40;;;;;;;;;;;;;;;9.42;94.92;93273.66;1067984;55;20161;-85
2020/12/23 00:33:41;;;;;;;;;;;;;;;9.42;94.66;93273.66;1065722;55;20180;-85
2020/12/23 00:34:42;;;;;;;;;;;;;;;9.41;95.06;93284.75;1065900;55;20290;-87
2020/12/23 00:35:42;;;;;;;;;;;;;;;9.41;95.11;93280.16;1065802;55;20181;-86
2020/12/23 00:36:43;;;;;;;;;;;;;;;9.51;92.83;93276.56;1063689;55;20158;-86
2020/12/23 00:37:43;;;;;;;;;;;;;;;9.58;91.91;93276.47;1068415;55;20299;-84
2020/12/23 00:38:44;;;;;;;;;;;;;;;9.54;93.67;93270.44;1070503;55;20191;-86
2020/12/23 00:39:44;;;;;;;;;;;;;;;9.52;93.53;93280.00;1066187;55;20170;-86
2020/12/23 00:40:45;;;;;;;;;;;;;;;9.52;93.43;93269.31;1066151;55;20175;-87
2020/12/23 00:41:45;;;;;;;;;;;;;;;9.45;94.00;93272.09;1068332;55;20184;-85
2020/12/23 00:42:46;;;;;;;;;;;;;;;9.41;94.61;93268.72;1068326;55;20189;-84
2020/12/23 00:43:47;;;;;;;;;;;;;;;9.41;93.39;93274.81;1065945;55;20153;-86
2020/12/23 00:44:48;;;;;;;;;;;;;;;9.43;94.42;93277.84;1068513;55;20157;-86
2020/12/23 00:45:48;;;;;;;;;;;;;;;9.42;94.27;93278.25;1068193;55;20157;-84
2020/12/23 00:46:51;;;;;;;;;;;;;;;9.33;94.66;93276.84;1068234;55;20707;-87
2020/12/23 00:47:51;;;;;;;;;;;;;;;9.32;94.92;93275.34;1068151;55;20161;-85
2020/12/23 00:48:52;;;;;;;;;;;;;;;9.27;95.51;93278.47;1066116;55;20954;-85
2020/12/23 00:49:52;;;;;;;;;;;;;;;9.29;95.25;93273.47;1066145;55;20185;-84
2020/12/23 00:50:53;;;;;;;;;;;;;;;9.27;94.83;93275.03;1066296;55;20153;-86
2020/12/23 00:51:54;;;;;;;;;;;;;;;9.24;95.32;93273.91;1066232;55;20168;-85
2020/12/23 00:52:54;;;;;;;;;;;;;;;9.20;95.98;93272.47;1066188;55;20200;-84
2020/12/23 00:53:55;;;;;;;;;;;;;;;9.17;96.51;93270.59;1066140;55;20262;-85
2020/12/23 00:54:55;;;;;;;;;;;;;;;9.16;96.38;93271.75;1068378;55;20188;-85
2020/12/23 00:55:56;;;;;;;;;;;;;;;9.17;96.39;93270.59;1068467;55;20157;-84
2020/12/23 00:56:56;;;;;;;;;;;;;;;9.22;95.38;93268.25;1066128;55;20246;-85
2020/12/23 00:57:57;;;;;;;;;;;;;;;9.18;95.95;93269.44;1066214;55;20172;-86
2020/12/23 00:58:57;;;;;;;;;;;;;;;9.15;96.31;93280.91;1066000;55;20180;-86
2020/12/23 00:59:58;;;;;;;;;;;;;;;9.31;94.27;93268.50;1066155;55;20173;-85
2020/12/23 01:00:59;;;;;;;;;;;;;;;9.36;93.87;93277.94;1068426;55;20176;-85
2020/12/23 01:02:00;;;;;;;;;;;;;;;9.41;92.88;93285.50;1070480;55;21213;-86
2020/12/23 01:03:00;;;;;;;;;;;;;;;9.31;94.69;93278.41;1066262;55;20195;-86
2020/12/23 01:04:01;;;;;;;;;;;;;;;9.30;94.71;93279.53;1068344;55;20168;-85
2020/12/23 01:05:01;;;;;;;;;;;;;;;9.30;94.89;93277.63;1066233;55;20283;-86
2020/12/23 01:06:08;;;;;;;;;;;;;;;9.31;95.23;93284.50;1066106;55;20181;-85
2020/12/23 01:07:08;;;;;;;;;;;;;;;9.31;94.99;93281.84;1066178;55;20165;-85
2020/12/23 01:08:09;;;;;;;;;;;;;;;9.31;95.15;93279.16;1066018;55;20183;-88
2020/12/23 01:09:09;;;;;;;;;;;;;;;9.30;95.32;93282.22;1066147;55;20154;-86
2020/12/23 01:10:10;;;;;;;;;;;;;;;9.28;95.62;93284.53;1066234;55;20185;-86
2020/12/23 01:11:11;;;;;;;;;;;;;;;9.29;94.85;93272.72;1070365;55;20153;-85
2020/12/23 01:12:12;;;;;;;;;;;;;;;9.34;94.28;93270.34;1065955;55;20663;-85
2020/12/23 01:13:13;;;;;;;;;;;;;;;9.39;93.60;93266.44;1066228;55;20170;-85
2020/12/23 01:14:15;;;;;;;;;;;;;;;9.32;94.26;93266.56;1068219;55;20157;-86
2020/12/23 01:15:15;;;;;;;;;;;;;;;9.30;93.97;93269.63;1063568;55;20240;-84
2020/12/23 01:16:20;;;;;;;;;;;;;;;9.30;95.21;93274.22;1066119;55;20556;-85
2020/12/23 01:17:20;;;;;;;;;;;;;;;9.24;94.17;93267.84;1064294;55;20625;-85
2020/12/23 01:18:21;;;;;;;;;;;;;;;9.24;94.22;93273.16;1068164;55;20183;-86
2020/12/23 01:19:21;;;;;;;;;;;;;;;9.29;93.19;93265.47;1068285;55;20164;-85
2020/12/23 01:20:22;;;;;;;;;;;;;;;9.25;94.13;93264.00;1068171;55;20184;-87
2020/12/23 01:21:23;;;;;;;;;;;;;;;9.24;94.15;93268.59;1065992;55;20175;-85
2020/12/23 01:22:24;;;;;;;;;;;;;;;9.24;94.05;93263.25;1065981;55;20165;-86
2020/12/23 01:23:25;;;;;;;;;;;;;;;9.32;93.07;93262.00;1068342;55;20165;-85
2020/12/23 01:24:26;;;;;;;;;;;;;;;9.30;93.68;93261.63;1064012;55;20170;-87
2020/12/23 01:25:26;;;;;;;;;;;;;;;9.33;93.20;93263.50;1063935;55;20223;-85
2020/12/23 01:26:27;;;;;;;;;;;;;;;9.45;92.03;93269.44;1065920;55;20157;-85
2020/12/23 01:27:27;;;;;;;;;;;;;;;9.39;92.59;93263.03;1063846;55;21098;-85
2020/12/23 01:28:28;;;;;;;;;;;;;;;9.33;92.96;93268.06;1066052;55;20162;-85
2020/12/23 01:29:30;;;;;;;;;;;;;;;9.30;93.00;93260.88;1068451;55;20183;-87
2020/12/23 01:30:30;;;;;;;;;;;;;;;9.27;93.70;93267.03;1066169;55;20158;-87
2020/12/23 01:31:31;;;;;;;;;;;;;;;9.23;93.83;93261.00;1065951;55;20300;-88
2020/12/23 01:32:31;;;;;;;;;;;;;;;9.16;94.25;93261.84;1068079;55;20149;-86
2020/12/23 01:33:33;;;;;;;;;;;;;;;9.14;94.63;93271.41;1065894;55;20166;-86
2020/12/23 01:34:33;;;;;;;;;;;;;;;9.17;94.10;93263.34;1070436;55;20271;-87
2020/12/23 01:35:34;;;;;;;;;;;;;;;9.17;93.73;93273.25;1070495;55;20261;-86
2020/12/23 01:36:35;;;;;;;;;;;;;;;9.20;93.20;93262.53;1068384;55;20216;-85
2020/12/23 01:37:35;;;;;;;;;;;;;;;9.28;92.12;93260.53;1068312;55;20663;-85
2020/12/23 01:38:37;;;;;;;;;;;;;;;9.25;92.70;93250.66;1070403;55;20188;-85
2020/12/23 01:39:37;;;;;;;;;;;;;;;9.25;93.26;93253.34;1070441;55;20157;-85
2020/12/23 01:40:38;;;;;;;;;;;;;;;9.23;92.75;93250.31;1068195;55;20180;-86
2020/12/23 01:41:38;;;;;;;;;;;;;;;9.28;93.04;93261.28;1066324;55;20153;-85
2020/12/23 01:42:39;;;;;;;;;;;;;;;9.31;92.99;93249.06;1066071;55;20579;-86
2020/12/23 01:43:40;;;;;;;;;;;;;;;9.22;92.99;93248.78;1063791;55;20613;-85
2020/12/23 01:44:41;;;;;;;;;;;;;;;9.32;92.11;93250.56;1066250;55;20189;-87
2020/12/23 01:45:41;;;;;;;;;;;;;;;9.29;92.60;93249.44;1070457;55;20161;-85
2020/12/23 01:46:43;;;;;;;;;;;;;;;9.25;93.17;93250.66;1068052;55;20657;-85
2020/12/23 01:47:44;;;;;;;;;;;;;;;9.38;91.62;93248.94;1066132;55;20165;-87
2020/12/23 01:48:45;;;;;;;;;;;;;;;9.31;92.52;93241.06;1067975;55;20170;-85
2020/12/23 01:49:45;;;;;;;;;;;;;;;9.34;92.25;93234.91;1070403;55;20168;-85
2020/12/23 01:50:46;;;;;;;;;;;;;;;9.38;92.17;93243.59;1066162;55;20157;-85
2020/12/23 01:51:46;;;;;;;;;;;;;;;9.37;91.66;93246.69;1066103;55;20176;-85
2020/12/23 01:52:47;;;;;;;;;;;;;;;9.49;90.91;93243.47;1068298;55;20176;-85
2020/12/23 01:53:48;;;;;;;;;;;;;;;9.53;90.29;93242.25;1068212;55;20177;-85
2020/12/23 01:54:49;;;;;;;;;;;;;;;9.51;91.03;93244.53;1065962;55;20680;-84
2020/12/23 01:55:50;;;;;;;;;;;;;;;9.49;91.77;93246.13;1068253;55;20165;-85
2020/12/23 01:56:53;;;;;;;;;;;;;;;9.45;91.48;93240.84;1068180;55;20169;-85
2020/12/23 01:57:55;;;;;;;;;;;;;;;9.54;90.34;93243.75;1068298;55;20660;-86
2020/12/23 01:58:55;;;;;;;;;;;;;;;9.48;90.54;93236.59;1070513;55;20251;-86
2020/12/23 01:59:56;;;;;;;;;;;;;;;9.49;90.57;93236.22;1068153;55;20595;-86
2020/12/23 02:00:57;;;;;;;;;;;;;;;9.46;92.31;93231.69;1065971;55;20169;-83
2020/12/23 02:02:24;;;;;;;;;;;;;;;9.43;91.24;93224.47;1068044;55;20173;-85
2020/12/23 02:03:25;;;;;;;;;;;;;;;9.46;91.63;93228.25;1068093;55;20200;-85
2020/12/23 02:04:25;;;;;;;;;;;;;;;9.50;91.36;93226.28;1070750;55;20629;-85
2020/12/23 02:05:26;;;;;;;;;;;;;;;9.51;90.91;93227.78;1068206;55;20161;-84
2020/12/23 02:06:27;;;;;;;;;;;;;;;9.47;90.69;93229.75;1066048;55;20193;-86
2020/12/23 02:07:28;;;;;;;;;;;;;;;9.46;91.50;93225.59;1066125;55;20157;-85
2020/12/23 02:08:28;;;;;;;;;;;;;;;9.45;91.98;93226.75;1063680;55;20669;-85
2020/12/23 02:09:31;;;;;;;;;;;;;;;9.40;92.08;93219.97;1066242;55;20196;-84
2020/12/23 02:10:32;;;;;;;;;;;;;;;9.36;91.60;93219.25;1070624;55;20176;-85
2020/12/23 02:11:33;;;;;;;;;;;;;;;9.33;92.70;93212.06;1070747;55;20149;-85
2020/12/23 02:12:34;;;;;;;;;;;;;;;9.32;92.64;93213.97;1070214;55;20157;-86
2020/12/23 02:13:38;;;;;;;;;;;;;;;9.32;92.23;93213.97;1068212;55;20200;-84
2020/12/23 02:14:39;;;;;;;;;;;;;;;9.35;91.72;93217.75;1065786;55;20197;-86
2020/12/23 02:15:39;;;;;;;;;;;;;;;9.28;92.41;93209.84;1063897;55;20161;-85
2020/12/23 02:16:41;;;;;;;;;;;;;;;9.35;92.02;93212.44;1068212;55;20168;-86
2020/12/23 02:17:41;;;;;;;;;;;;;;;9.35;92.22;93212.44;1065998;55;20250;-86
2020/12/23 02:18:43;;;;;;;;;;;;;;;9.31;92.03;93207.12;1065961;55;20723;-85
2020/12/23 02:19:50;;;;;;;;;;;;;;;9.34;92.20;93216.22;1065797;55;20208;-85
2020/12/23 02:20:50;;;;;;;;;;;;;;;9.44;90.39;93201.22;1066046;55;20270;-86
2020/12/23 02:21:51;;;;;;;;;;;;;;;9.43;91.02;93205.78;1068266;55;20246;-87
2020/12/23 02:22:51;;;;;;;;;;;;;;;9.42;90.92;93208.88;1070160;55;20172;-84
2020/12/23 02:23:52;;;;;;;;;;;;;;;9.41;90.84;93208.13;1068050;55;20161;-84
2020/12/23 02:24:53;;;;;;;;;;;;;;;9.32;92.49;93215.91;1065806;55;20734;-85
2020/12/23 02:25:54;;;;;;;;;;;;;;;9.33;92.70;93206.72;1063782;55;20266;-85
2020/12/23 02:26:54;;;;;;;;;;;;;;;9.30;92.83;93200.28;1066019;55;20162;-85
2020/12/23 02:27:55;;;;;;;;;;;;;;;9.36;91.71;93205.94;1065979;55;20633;-87
2020/12/23 02:28:55;;;;;;;;;;;;;;;9.33;91.88;93212.06;1066050;55;20181;-84
2020/12/23 02:29:57;;;;;;;;;;;;;;;9.28;91.92;93204.53;1068102;55;20195;-86
2020/12/23 02:30:59;;;;;;;;;;;;;;;9.29;92.45;93204.09;1066114;55;20169;-85
2020/12/23 02:31:59;;;;;;;;;;;;;;;9.30;91.95;93196.84;1067992;55;20161;-87
2020/12/23 02:33:00;;;;;;;;;;;;;;;9.27;92.80;93200.34;1070293;55;20157;-88
2020/12/23 02:34:02;;;;;;;;;;;;;;;9.30;91.78;93197.59;1068185;55;20165;-85
2020/12/23 02:35:05;;;;;;;;;;;;;;;9.29;92.35;93206.03;1066084;55;20166;-83
2020/12/23 02:36:06;;;;;;;;;;;;;;;9.28;92.19;93207.94;1063793;55;20217;-87
2020/12/23 02:37:08;;;;;;;;;;;;;;;9.24;92.55;93199.25;1063814;55;20712;-85
2020/12/23 02:38:09;;;;;;;;;;;;;;;9.24;92.89;93193.91;1065962;55;20169;-85
2020/12/23 02:39:10;;;;;;;;;;;;;;;9.22;92.64;93204.22;1063812;55;20692;-86
2020/12/23 02:40:10;;;;;;;;;;;;;;;9.29;91.63;93203.34;1065970;55;20142;-85
2020/12/23 02:41:11;;;;;;;;;;;;;;;9.28;91.76;93197.28;1068018;55;20244;-88
2020/12/23 02:42:11;;;;;;;;;;;;;;;9.24;92.24;93191.22;1070167;55;20180;-86
2020/12/23 02:43:12;;;;;;;;;;;;;;;9.30;91.78;93189.59;1070138;55;20160;-85
2020/12/23 02:44:12;;;;;;;;;;;;;;;9.44;90.87;93182.53;1067982;55;20179;-85
2020/12/23 02:45:13;;;;;;;;;;;;;;;9.44;90.84;93177.97;1063576;55;20178;-84
2020/12/23 02:46:14;;;;;;;;;;;;;;;9.51;90.28;93174.41;1065901;55;20170;-85
2020/12/23 02:47:16;;;;;;;;;;;;;;;9.43;91.47;93175.69;1066138;55;20169;-84
2020/12/23 02:48:16;;;;;;;;;;;;;;;9.38;91.65;93171.59;1068146;55;20169;-86
2020/12/23 02:49:17;;;;;;;;;;;;;;;9.39;90.83;93169.66;1065858;55;20246;-86
2020/12/23 02:50:17;;;;;;;;;;;;;;;9.36;91.46;93167.81;1068035;55;20325;-85
2020/12/23 02:51:18;;;;;;;;;;;;;;;9.36;91.48;93165.16;1065929;55;20173;-86
2020/12/23 02:52:18;;;;;;;;;;;;;;;9.36;91.06;93159.81;1063815;55;20263;-84
2020/12/23 02:53:19;;;;;;;;;;;;;;;9.31;91.11;93161.78;1066025;55;20176;-84
2020/12/23 02:54:19;;;;;;;;;;;;;;;9.32;91.34;93163.28;1068160;55;20184;-85
2020/12/23 02:55:20;;;;;;;;;;;;;;;9.37;91.10;93159.41;1070158;55;20168;-85
2020/12/23 02:56:20;;;;;;;;;;;;;;;9.34;91.53;93158.28;1070327;55;20153;-87
2020/12/23 02:57:20;;;;;;;;;;;;;;;9.39;91.01;93162.41;1065881;55;20201;-85
2020/12/23 02:58:21;;;;;;;;;;;;;;;9.36;91.63;93163.25;1066018;55;20161;-87
2020/12/23 02:59:21;;;;;;;;;;;;;;;9.38;91.31;93168.91;1068045;55;20192;-86
2020/12/23 03:00:22;;;;;;;;;;;;;;;9.29;91.40;93160.69;1067942;55;20273;-85
2020/12/23 03:01:23;;;;;;;;;;;;;;;9.27;91.74;93153.09;1067993;55;20202;-85
2020/12/23 03:02:23;;;;;;;;;;;;;;;9.25;91.67;93162.66;1068047;55;20244;-86
2020/12/23 03:03:24;;;;;;;;;;;;;;;9.23;92.46;93156.97;1068105;55;20169;-84
2020/12/23 03:04:24;;;;;;;;;;;;;;;9.26;92.31;93153.47;1068072;55;20305;-85
2020/12/23 03:05:25;;;;;;;;;;;;;;;9.25;91.39;93159.97;1065945;55;20671;-84
2020/12/23 03:06:25;;;;;;;;;;;;;;;9.26;92.72;93158.81;1068051;55;20197;-85
2020/12/23 03:07:26;;;;;;;;;;;;;;;9.25;91.98;93154.66;1066016;55;20250;-83
2020/12/23 03:08:29;;;;;;;;;;;;;;;9.28;91.10;93153.84;1066246;55;20295;-84
2020/12/23 03:09:29;;;;;;;;;;;;;;;9.23;92.33;93149.72;1068167;55;20157;-85
2020/12/23 03:10:30;;;;;;;;;;;;;;;9.21;91.87;93145.94;1065935;55;20145;-84
2020/12/23 03:11:30;;;;;;;;;;;;;;;9.23;91.86;93143.66;1065913;55;21094;-85
2020/12/23 03:12:31;;;;;;;;;;;;;;;9.22;91.58;93150.13;1063591;55;20255;-85
2020/12/23 03:13:31;;;;;;;;;;;;;;;9.20;92.59;93145.19;1063698;55;20180;-85
2020/12/23 03:14:32;;;;;;;;;;;;;;;9.20;92.81;93144.44;1067881;55;20192;-85
2020/12/23 03:15:33;;;;;;;;;;;;;;;9.17;92.58;93140.66;1067896;55;20153;-86
2020/12/23 03:16:34;;;;;;;;;;;;;;;9.20;92.47;93144.44;1063620;55;20162;-86
2020/12/23 03:17:36;;;;;;;;;;;;;;;9.20;92.40;93147.88;1065807;55;20165;-86
2020/12/23 03:18:39;;;;;;;;;;;;;;;9.22;92.36;93147.44;1065920;55;20161;-87
2020/12/23 03:19:39;;;;;;;;;;;;;;;9.19;92.80;93140.28;1065890;55;20165;-86
2020/12/23 03:20:40;;;;;;;;;;;;;;;9.15;92.35;93142.25;1065818;55;20720;-85
2020/12/23 03:21:40;;;;;;;;;;;;;;;9.13;92.44;93133.87;1065910;55;20184;-86
2020/12/23 03:22:42;;;;;;;;;;;;;;;9.10;92.71;93142.72;1068021;55;21273;-86
2020/12/23 03:23:43;;;;;;;;;;;;;;;9.12;92.44;93146.47;1070288;55;20175;-84
2020/12/23 03:24:43;;;;;;;;;;;;;;;9.10;92.87;93143.47;1070139;55;20188;-85
2020/12/23 03:25:44;;;;;;;;;;;;;;;9.08;92.97;93143.84;1065886;55;20173;-84
2020/12/23 03:26:44;;;;;;;;;;;;;;;9.07;92.68;93138.94;1065875;55;20310;-87
2020/12/23 03:27:45;;;;;;;;;;;;;;;9.06;92.73;93138.19;1070664;55;20156;-87
2020/12/23 03:28:45;;;;;;;;;;;;;;;9.18;91.79;93146.78;1067895;55;20149;-85
2020/12/23 03:29:47;;;;;;;;;;;;;;;9.13;92.44;93139.22;1068070;55;20196;-85
2020/12/23 03:30:48;;;;;;;;;;;;;;;9.08;92.67;93143.84;1065735;55;20578;-86
2020/12/23 03:31:48;;;;;;;;;;;;;;;9.03;93.72;93136.31;1063621;56;20610;-86
2020/12/23 03:32:49;;;;;;;;;;;;;;;9.01;92.75;93145.91;1063632;56;20154;-85
2020/12/23 03:33:49;;;;;;;;;;;;;;;8.97;93.63;93140.59;1065890;55;20162;-85
2020/12/23 03:34:50;;;;;;;;;;;;;;;8.95;93.57;93136.81;1070186;55;20256;-87
2020/12/23 03:35:51;;;;;;;;;;;;;;;8.96;93.65;93138.34;1070096;55;20273;-84
2020/12/23 03:36:53;;;;;;;;;;;;;;;8.96;93.32;93144.44;1070110;55;20259;-85
2020/12/23 03:37:53;;;;;;;;;;;;;;;8.92;94.57;93145.66;1067949;55;20141;-86
2020/12/23 03:38:54;;;;;;;;;;;;;;;8.89;94.54;93139.22;1068000;55;20289;-85
2020/12/23 03:39:54;;;;;;;;;;;;;;;8.88;94.05;93140.38;1067974;55;21063;-87
2020/12/23 03:40:55;;;;;;;;;;;;;;;8.87;94.55;93144.19;1065879;55;20173;-86
2020/12/23 03:41:56;;;;;;;;;;;;;;;8.92;93.46;93143.00;1065878;55;20181;-84
2020/12/23 03:42:57;;;;;;;;;;;;;;;8.94;93.34;93141.41;1067972;55;20195;-86
2020/12/23 03:43:58;;;;;;;;;;;;;;;8.94;93.15;93136.06;1067905;55;20649;-87
2020/12/23 03:44:58;;;;;;;;;;;;;;;8.91;93.84;93139.56;1068146;55;20184;-85
2020/12/23 03:45:59;;;;;;;;;;;;;;;8.87;93.74;93136.19;1068057;55;20172;-85
2020/12/23 03:46:59;;;;;;;;;;;;;;;8.84;94.75;93134.34;1067877;55;20157;-84
2020/12/23 03:48:00;;;;;;;;;;;;;;;8.88;94.26;93131.63;1065933;55;20193;-86
2020/12/23 03:49:00;;;;;;;;;;;;;;;8.78;94.93;93136.72;1067880;55;20172;-86
2020/12/23 03:50:02;;;;;;;;;;;;;;;8.81;94.94;93135.13;1067994;55;20157;-84
2020/12/23 03:51:02;;;;;;;;;;;;;;;8.78;94.91;93134.03;1068043;55;20188;-85
2020/12/23 03:52:03;;;;;;;;;;;;;;;8.75;95.33;93139.44;1067855;55;20157;-86
2020/12/23 03:53:04;;;;;;;;;;;;;;;8.75;95.67;93131.44;1067849;55;20221;-86
2020/12/23 03:54:05;;;;;;;;;;;;;;;8.70;95.10;93137.97;1067930;55;20197;-85
2020/12/23 03:55:05;;;;;;;;;;;;;;;8.79;94.28;93126.81;1065856;55;20645;-86
2020/12/23 03:56:09;;;;;;;;;;;;;;;8.74;94.99;93137.91;1066107;55;20192;-86
2020/12/23 03:57:09;;;;;;;;;;;;;;;8.69;95.20;93128.47;1063682;55;20177;-85
2020/12/23 03:58:10;;;;;;;;;;;;;;;8.71;95.49;93133.37;1065766;55;20153;-85
2020/12/23 03:59:11;;;;;;;;;;;;;;;8.70;95.36;93129.22;1065910;55;20578;-85
2020/12/23 04:00:13;;;;;;;;;;;;;;;8.64;96.45;93131.56;1065751;55;20165;-86
2020/12/23 04:01:13;;;;;;;;;;;;;;;8.60;96.28;93130.84;1061477;56;20181;-85
2020/12/23 04:02:14;;;;;;;;;;;;;;;8.57;96.53;93119.13;1063663;56;20173;-86
2020/12/23 04:03:14;;;;;;;;;;;;;;;8.58;96.44;93128.59;1063670;56;20182;-86
2020/12/23 04:04:17;;;;;;;;;;;;;;;8.64;96.21;93130.81;1063874;55;20262;-85
2020/12/23 04:05:18;;;;;;;;;;;;;;;8.58;96.37;93135.84;1065837;55;20283;-85
2020/12/23 04:06:19;;;;;;;;;;;;;;;8.61;95.87;93129.72;1065716;55;20153;-85
2020/12/23 04:07:19;;;;;;;;;;;;;;;8.55;96.16;93132.06;1065867;55;20207;-85
2020/12/23 04:08:20;;;;;;;;;;;;;;;8.55;96.73;93129.41;1065698;55;20188;-85
2020/12/23 04:09:20;;;;;;;;;;;;;;;8.52;96.88;93129.47;1067854;55;20161;-85
2020/12/23 04:10:21;;;;;;;;;;;;;;;8.53;97.02;93136.31;1067961;55;20165;-86
2020/12/23 04:11:21;;;;;;;;;;;;;;;8.49;96.36;93136.34;1067771;55;21156;-85
2020/12/23 04:12:21;;;;;;;;;;;;;;;8.49;96.88;93136.34;1070247;55;20176;-85
2020/12/23 04:13:22;;;;;;;;;;;;;;;8.53;96.50;93129.06;1068178;55;21050;-84
2020/12/23 04:14:23;;;;;;;;;;;;;;;8.57;96.81;93126.34;1068223;55;20240;-86
2020/12/23 04:15:23;;;;;;;;;;;;;;;8.53;96.90;93133.63;1067902;55;20181;-88
2020/12/23 04:16:24;;;;;;;;;;;;;;;8.54;96.50;93133.22;1066146;55;20246;-85
2020/12/23 04:17:24;;;;;;;;;;;;;;;8.58;95.65;93128.59;1063979;55;20189;-85
2020/12/23 04:18:25;;;;;;;;;;;;;;;8.52;96.90;93134.81;1066227;55;20633;-85
2020/12/23 04:19:25;;;;;;;;;;;;;;;8.48;96.99;93132.19;1063890;55;20181;-85
2020/12/23 04:20:26;;;;;;;;;;;;;;;8.47;97.37;93128.00;1063974;55;20165;-85
2020/12/23 04:21:27;;;;;;;;;;;;;;;8.42;97.48;93125.78;1068422;55;20165;-86
2020/12/23 04:22:28;;;;;;;;;;;;;;;8.46;97.30;93117.75;1068600;55;20614;-86
2020/12/23 04:23:29;;;;;;;;;;;;;;;8.42;97.52;93122.38;1066108;55;20187;-86
2020/12/23 04:24:29;;;;;;;;;;;;;;;8.38;97.19;93114.41;1063907;55;20176;-86
2020/12/23 04:25:30;;;;;;;;;;;;;;;8.44;97.23;93125.41;1066165;55;20188;-85
2020/12/23 04:26:31;;;;;;;;;;;;;;;8.44;96.68;93123.47;1068232;55;20215;-84
2020/12/23 04:27:32;;;;;;;;;;;;;;;8.40;97.27;93119.34;1063890;55;20162;-85
2020/12/23 04:28:33;;;;;;;;;;;;;;;8.41;97.25;93123.53;1063989;55;20217;-86
2020/12/23 04:29:33;;;;;;;;;;;;;;;8.38;97.46;93114.41;1068186;55;20578;-86
2020/12/23 04:30:34;;;;;;;;;;;;;;;8.38;97.37;93127.72;1066008;55;20248;-86
2020/12/23 04:31:35;;;;;;;;;;;;;;;8.37;97.49;93120.91;1066206;55;20654;-85
2020/12/23 04:32:36;;;;;;;;;;;;;;;8.31;97.66;93117.91;1066209;55;20165;-86
2020/12/23 04:33:36;;;;;;;;;;;;;;;8.30;97.75;93113.75;1063809;55;20165;-85
2020/12/23 04:34:37;;;;;;;;;;;;;;;8.28;97.32;93117.94;1066113;55;21115;-86
2020/12/23 04:35:37;;;;;;;;;;;;;;;8.30;97.89;93121.00;1066107;55;20157;-85
2020/12/23 04:36:38;;;;;;;;;;;;;;;8.34;97.09;93121.69;1063910;55;20158;-87
2020/12/23 04:37:40;;;;;;;;;;;;;;;8.34;96.56;93119.03;1068400;55;20261;-85
2020/12/23 04:38:41;;;;;;;;;;;;;;;8.25;97.24;93116.09;1066067;55;20254;-86
2020/12/23 04:39:41;;;;;;;;;;;;;;;8.29;97.03;93120.22;1064077;55;20153;-84
2020/12/23 04:40:42;;;;;;;;;;;;;;;8.33;96.51;93112.94;1063881;55;20173;-85
2020/12/23 04:41:42;;;;;;;;;;;;;;;8.24;96.89;93111.91;1061795;56;20162;-85
2020/12/23 04:42:43;;;;;;;;;;;;;;;8.29;97.22;93106.13;1066053;55;20665;-86
2020/12/23 04:43:43;;;;;;;;;;;;;;;8.29;97.55;93106.88;1068312;55;20636;-85
2020/12/23 04:44:44;;;;;;;;;;;;;;;8.25;96.56;93105.44;1066027;55;20166;-85
2020/12/23 04:45:44;;;;;;;;;;;;;;;8.30;96.61;93103.09;1063973;55;20173;-86
2020/12/23 04:46:46;;;;;;;;;;;;;;;8.19;96.82;93105.13;1066345;55;20199;-86
2020/12/23 04:47:47;;;;;;;;;;;;;;;8.23;97.37;93105.09;1068335;55;20161;-85
2020/12/23 04:48:51;;;;;;;;;;;;;;;8.24;97.35;93104.69;1066164;55;20154;-85
2020/12/23 04:49:52;;;;;;;;;;;;;;;8.13;97.58;93114.72;1066167;55;20173;-87
2020/12/23 04:50:54;;;;;;;;;;;;;;;8.03;98.22;93108.38;1064023;55;20656;-86
2020/12/23 04:51:55;;;;;;;;;;;;;;;8.06;98.21;93104.16;1066284;55;20338;-84
2020/12/23 04:52:56;;;;;;;;;;;;;;;8.07;97.93;93105.66;1063991;55;20272;-86
2020/12/23 04:53:57;;;;;;;;;;;;;;;7.97;98.49;93103.91;1063836;55;20180;-86
2020/12/23 04:55:02;;;;;;;;;;;;;;;7.93;98.37;93106.59;1068330;55;20187;-87
2020/12/23 04:56:03;;;;;;;;;;;;;;;7.90;98.82;93109.28;1068262;55;20169;-85
2020/12/23 04:57:04;;;;;;;;;;;;;;;7.91;98.48;93100.19;1066002;55;20172;-85
2020/12/23 04:58:07;;;;;;;;;;;;;;;7.81;99.33;93099.12;1063991;55;20658;-86
2020/12/23 04:59:10;;;;;;;;;;;;;;;7.85;99.08;93109.72;1064045;55;20154;-85
2020/12/23 05:00:10;;;;;;;;;;;;;;;7.85;98.73;93101.75;1066085;55;20184;-86
2020/12/23 05:01:10;;;;;;;;;;;;;;;7.79;99.07;93098.78;1065858;55;20184;-84
2020/12/23 05:02:12;;;;;;;;;;;;;;;7.75;99.27;93092.75;1063903;55;20271;-86
2020/12/23 05:03:13;;;;;;;;;;;;;;;7.80;99.18;93093.06;1063907;55;20630;-86
2020/12/23 05:04:15;;;;;;;;;;;;;;;7.77;99.57;93093.09;1064174;55;20634;-87
2020/12/23 05:05:17;;;;;;;;;;;;;;;7.75;99.30;93090.09;1064092;55;20185;-86
2020/12/23 05:06:18;;;;;;;;;;;;;;;7.82;99.04;93101.41;1066056;55;20184;-86
2020/12/23 05:07:22;;;;;;;;;;;;;;;7.88;98.61;93093.72;1063912;55;20181;-85
2020/12/23 05:08:24;;;;;;;;;;;;;;;7.81;98.88;93097.25;1064269;55;20185;-85
2020/12/23 05:09:25;;;;;;;;;;;;;;;7.87;98.25;93096.81;1066162;55;20173;-87
2020/12/23 05:10:29;;;;;;;;;;;;;;;7.86;98.34;93093.38;1063963;55;20203;-84
2020/12/23 05:11:31;;;;;;;;;;;;;;;7.76;98.75;93095.00;1063949;55;20181;-86
2020/12/23 05:12:32;;;;;;;;;;;;;;;7.72;99.63;93096.94;1066164;55;20189;-85
2020/12/23 05:13:33;;;;;;;;;;;;;;;7.67;100.00;93094.72;1063860;55;21673;-86
2020/12/23 05:14:34;;;;;;;;;;;;;;;7.67;99.96;93092.06;1063938;55;20170;-84
2020/12/23 05:15:35;;;;;;;;;;;;;;;7.66;100.00;93095.13;1066295;55;20256;-85
2020/12/23 05:16:35;;;;;;;;;;;;;;;7.64;100.00;93097.41;1064082;55;20154;-90
2020/12/23 05:17:36;;;;;;;;;;;;;;;7.62;100.00;93099.72;1065964;55;20150;-87
2020/12/23 05:18:41;;;;;;;;;;;;;;;7.64;100.00;93086.78;1063888;55;20247;-89
2020/12/23 05:19:42;;;;;;;;;;;;;;;7.66;100.00;93092.47;1063939;55;20158;-85
2020/12/23 05:20:45;;;;;;;;;;;;;;;7.64;100.00;93097.41;1063867;55;20209;-85
2020/12/23 05:21:46;;;;;;;;;;;;;;;7.64;100.00;93094.75;1066304;55;20181;-84